Baltia — 9HMG9 — position and weather

sailwx.info

Track history (hours):
 
Tides and Currents Weather Stations Pressure Air Temp Water Temp Dewpoint Dewpoint Depression Visibility Wind Speed Wind Dir Waves Ship Positions

Baltia

Last reported at 2016-Jun-29 13:25 UTC. Time now 2016-Jun-30 10:32 UTC.
Position N 29°59' E 123°09'.

Length 224 m; draft 10.4 m.

Type: Cargo ship. MMSI: 249174000.

Date/timePositionNaut miles runAvg speedWind from/ knotsBaromVisibWave heightAir tempDewpointWater temp
2016-Jun-29 13:25N 29°59' E 123°09'2910.1
2016-Jun-29 10:33N 29°44' E 122°40'1110.6
2016-Jun-29 09:33N 29°44' E 122°28'9 8.5
2016-Jun-29 08:33N 29°45' E 122°18'9 8.7
2016-Jun-29 07:33N 29°51' E 122°11'9 8.6
2016-Jun-29 06:33N 29°55' E 122°02'8 7.9
2016-Jun-29 05:33N 30°02' E 121°59'0 0.1
2016-Jun-29 03:11N 30°02' E 121°59'0 0.0
2016-Jun-29 02:17N 30°02' E 121°59'0 0.0
2016-Jun-29 01:32N 30°02' E 121°59'0 0.0
2016-Jun-28 15:20N 30°02' E 121°59'0 0.0
2016-Jun-28 14:32N 30°02' E 121°59'0 0.0
2016-Jun-28 13:05N 30°02' E 121°59'0 0.0
2016-Jun-28 09:32N 30°02' E 121°59'0 0.0
2016-Jun-28 08:26N 30°02' E 121°59'0 0.0
2016-Jun-28 06:32N 30°02' E 121°59'0 0.0
2016-Jun-28 03:14N 30°02' E 121°59'0 0.0
2016-Jun-28 02:14N 30°02' E 121°59'0 0.0
2016-Jun-27 23:05N 30°02' E 121°59'0 0.0
2016-Jun-27 22:17N 30°02' E 121°59'0 0.0
2016-Jun-27 21:26N 30°02' E 121°59'0 0.0
2016-Jun-27 20:29N 30°02' E 121°59'0 0.0
2016-Jun-27 18:29N 30°02' E 121°59'0 0.0
2016-Jun-27 16:32N 30°02' E 121°59'0 0.0
2016-Jun-27 09:29N 30°02' E 121°59'3 3.1
2016-Jun-27 08:33N 30°01' E 121°56'1 0.4
2016-Jun-27 06:31N 30°01' E 121°56'0 0.1
2016-Jun-27 03:13N 30°01' E 121°56'0 0.0
2016-Jun-27 01:26N 30°01' E 121°56'0 0.0
2016-Jun-27 00:20N 30°01' E 121°56'0 0.1
2016-Jun-26 23:26N 30°01' E 121°56'0 0.0
2016-Jun-26 21:31N 30°01' E 121°56'0 0.3
2016-Jun-26 20:16N 30°01' E 121°56'0 0.1
2016-Jun-26 19:20N 30°01' E 121°56'0 0.0
2016-Jun-26 11:32N 30°01' E 121°56'0 0.1
2016-Jun-26 10:33N 30°01' E 121°56'0 0.1
2016-Jun-26 09:31N 30°01' E 121°56'0 0.3
2016-Jun-26 08:33N 30°01' E 121°56'0 0.2
2016-Jun-26 07:33N 30°01' E 121°56'0 0.1
2016-Jun-26 06:33N 30°01' E 121°56'0 0.0
2016-Jun-26 05:33N 30°01' E 121°56'0 0.1
2016-Jun-26 04:34N 30°01' E 121°56'0 0.1
2016-Jun-26 03:33N 30°01' E 121°56'0 0.2
2016-Jun-26 02:32N 30°01' E 121°56'0 0.1
2016-Jun-26 01:32N 30°01' E 121°56'0 0.0
2016-Jun-26 00:34N 30°01' E 121°56'0 0.1
2016-Jun-25 23:32N 30°01' E 121°56'0 0.1
2016-Jun-25 22:32N 30°01' E 121°56'0 0.0
2016-Jun-25 21:34N 30°01' E 121°56'0 0.3
2016-Jun-25 20:33N 30°01' E 121°56'0 0.1
2016-Jun-25 19:34N 30°01' E 121°56'0 0.1
2016-Jun-25 18:31N 30°01' E 121°56'0 0.1
2016-Jun-25 17:34N 30°01' E 121°56'0 0.1
2016-Jun-25 16:33N 30°01' E 121°56'0 0.1
2016-Jun-25 15:31N 30°01' E 121°56'0 0.1
2016-Jun-25 14:33N 30°01' E 121°56'0 0.2
2016-Jun-25 13:26N 30°01' E 121°56'0 0.0
2016-Jun-25 12:27N 30°01' E 121°56'0 0.0
2016-Jun-25 11:33N 30°01' E 121°56'0 0.1
2016-Jun-25 10:34N 30°01' E 121°56'0 0.1
2016-Jun-25 09:32N 30°01' E 121°56'0 0.0
2016-Jun-25 08:32N 30°01' E 121°56'0 0.3
2016-Jun-25 07:33N 30°01' E 121°56'0 0.2
2016-Jun-25 06:33N 30°01' E 121°56'5 5.1
2016-Jun-25 05:34N 29°57' E 121°60'10 9.9
2016-Jun-25 04:33N 29°54' E 122°11'1010.5
2016-Jun-25 03:34N 29°46' E 122°18'8 8.0
2016-Jun-25 02:33N 29°46' E 122°28'9 0.2
2016-Jun-23 08:09N 29°46' E 122°37'4 5.9
2016-Jun-23 07:27N 29°44' E 122°42'  
Track history (hours):
 
Tides and Currents Weather Stations Pressure Air Temp Water Temp Dewpoint Dewpoint Depression Visibility Wind Speed Wind Dir Waves Ship Positions

Baltia

Last reported at 2016-Jun-29 13:25 UTC. Time now 2016-Jun-30 10:32 UTC.
Position N 29°59' E 123°09'.

Length 224 m; draft 10.4 m.

Type: Cargo ship. MMSI: 249174000.

Date/timePositionNaut miles runAvg speedWind from/ knotsBaromVisibWave heightAir tempDewpointWater temp
2016-Jun-29 13:25N 29°59' E 123°09'2910.1
2016-Jun-29 10:33N 29°44' E 122°40'1110.6
2016-Jun-29 09:33N 29°44' E 122°28'9 8.5
2016-Jun-29 08:33N 29°45' E 122°18'9 8.7
2016-Jun-29 07:33N 29°51' E 122°11'9 8.6
2016-Jun-29 06:33N 29°55' E 122°02'8 7.9
2016-Jun-29 05:33N 30°02' E 121°59'0 0.1
2016-Jun-29 03:11N 30°02' E 121°59'0 0.0
2016-Jun-29 02:17N 30°02' E 121°59'0 0.0
2016-Jun-29 01:32N 30°02' E 121°59'0 0.0
2016-Jun-28 15:20N 30°02' E 121°59'0 0.0
2016-Jun-28 14:32N 30°02' E 121°59'0 0.0
2016-Jun-28 13:05N 30°02' E 121°59'0 0.0
2016-Jun-28 09:32N 30°02' E 121°59'0 0.0
2016-Jun-28 08:26N 30°02' E 121°59'0 0.0
2016-Jun-28 06:32N 30°02' E 121°59'0 0.0
2016-Jun-28 03:14N 30°02' E 121°59'0 0.0
2016-Jun-28 02:14N 30°02' E 121°59'0 0.0
2016-Jun-27 23:05N 30°02' E 121°59'0 0.0
2016-Jun-27 22:17N 30°02' E 121°59'0 0.0
2016-Jun-27 21:26N 30°02' E 121°59'0 0.0
2016-Jun-27 20:29N 30°02' E 121°59'0 0.0
2016-Jun-27 18:29N 30°02' E 121°59'0 0.0
2016-Jun-27 16:32N 30°02' E 121°59'0 0.0
2016-Jun-27 09:29N 30°02' E 121°59'3 3.1
2016-Jun-27 08:33N 30°01' E 121°56'1 0.4
2016-Jun-27 06:31N 30°01' E 121°56'0 0.1
2016-Jun-27 03:13N 30°01' E 121°56'0 0.0
2016-Jun-27 01:26N 30°01' E 121°56'0 0.0
2016-Jun-27 00:20N 30°01' E 121°56'0 0.1
2016-Jun-26 23:26N 30°01' E 121°56'0 0.0
2016-Jun-26 21:31N 30°01' E 121°56'0 0.3
2016-Jun-26 20:16N 30°01' E 121°56'0 0.1
2016-Jun-26 19:20N 30°01' E 121°56'0 0.0
2016-Jun-26 11:32N 30°01' E 121°56'0 0.1
2016-Jun-26 10:33N 30°01' E 121°56'0 0.1
2016-Jun-26 09:31N 30°01' E 121°56'0 0.3
2016-Jun-26 08:33N 30°01' E 121°56'0 0.2
2016-Jun-26 07:33N 30°01' E 121°56'0 0.1
2016-Jun-26 06:33N 30°01' E 121°56'0 0.0
2016-Jun-26 05:33N 30°01' E 121°56'0 0.1
2016-Jun-26 04:34N 30°01' E 121°56'0 0.1
2016-Jun-26 03:33N 30°01' E 121°56'0 0.2
2016-Jun-26 02:32N 30°01' E 121°56'0 0.1
2016-Jun-26 01:32N 30°01' E 121°56'0 0.0
2016-Jun-26 00:34N 30°01' E 121°56'0 0.1
2016-Jun-25 23:32N 30°01' E 121°56'0 0.1
2016-Jun-25 22:32N 30°01' E 121°56'0 0.0
2016-Jun-25 21:34N 30°01' E 121°56'0 0.3
2016-Jun-25 20:33N 30°01' E 121°56'0 0.1
2016-Jun-25 19:34N 30°01' E 121°56'0 0.1
2016-Jun-25 18:31N 30°01' E 121°56'0 0.1
2016-Jun-25 17:34N 30°01' E 121°56'0 0.1
2016-Jun-25 16:33N 30°01' E 121°56'0 0.1
2016-Jun-25 15:31N 30°01' E 121°56'0 0.1
2016-Jun-25 14:33N 30°01' E 121°56'0 0.2
2016-Jun-25 13:26N 30°01' E 121°56'0 0.0
2016-Jun-25 12:27N 30°01' E 121°56'0 0.0
2016-Jun-25 11:33N 30°01' E 121°56'0 0.1
2016-Jun-25 10:34N 30°01' E 121°56'0 0.1
2016-Jun-25 09:32N 30°01' E 121°56'0 0.0
2016-Jun-25 08:32N 30°01' E 121°56'0 0.3
2016-Jun-25 07:33N 30°01' E 121°56'0 0.2
2016-Jun-25 06:33N 30°01' E 121°56'5 5.1
2016-Jun-25 05:34N 29°57' E 121°60'10 9.9
2016-Jun-25 04:33N 29°54' E 122°11'1010.5
2016-Jun-25 03:34N 29°46' E 122°18'8 8.0
2016-Jun-25 02:33N 29°46' E 122°28'9 0.2
2016-Jun-23 08:09N 29°46' E 122°37'4 5.9
2016-Jun-23 07:27N 29°44' E 122°42'  

Dump ship's entire track history